Erie (ERI/KERI)

Map

Information

Location
Erie, PA
Local Time
20:57 / 8:57 pm
GMT Time
01:57 / 1:57 am
Gates
4
No FAA reported delays
METAR KERI 250151Z 19016G22KT 10SM CLR 09/M04 A2970 RMK AO2 SLP061 T00941044
TAF KERI 242340Z 2500/2524 20017G25KT P6SM BKN250 FM250400 20020G32KT P6SM BKN150 FM251200 23015G25KT P6SM VCSH OVC025 FM251400 24015G25KT P6SM -SHRA OVC015 FM251700 28015G25KT P6SM VCSH OVC015